ETHA

Altenstadt Army Airfield Airport

Altenstadt, Germany
METAR ETHA 151920Z 24004KT 9999 FEW040 M01/M04 Q1000 BLACKBLU+
Observed Flight Rules
Dec-15 @ 19:20 UTC (27 minutes ago) Visual Flight Rules
Wind Visibility Clouds
240° at 4 knots 10,000+ meters
  • Few at 4,000' AGL
Temperatures Readings
Current -1°C / 30°F
Dewpoint -4°C / 25°F
Humidity 80%
Altimeter 29.53" Hg
Pressure 1000 hPa
Elevation 760
METAR ETHA 151920Z 24004KT 9999 FEW040 M01/M04 Q1000 BLACKBLU+
Observed Flight Rules
Dec-15 @ 19:20 UTC
(27 minutes ago)
VFR
Wind Visibility
240° at 4 knots 10,000+ meters
Clouds
  • Few at 4,000' AGL
Temperature Dewpoint
-1°C / 30°F -4°C / 25°F
Humidity Altimeter Pressure
80% 29.53" Hg 1000 hPa